logo
Games tagged Golf
# Game Release date
Price
Score rank
(Userscore / Metascore)
Owners
Players
Playtime (Median)
Developer(s)
Publisher(s)
1 PGA TOUR 2K21 Aug 20, 2020 $59.99N/A (N/A/77%)200,000 .. 500,00016.67%16:43 (10:55)HB Studios Multimedia Ltd.2K
2 Golf Club Wasteland Sep 3, 2021 $9.99N/A (N/A/77%)20,000 .. 50,0000%00:00 (00:00)Demagog StudioUntold Tales
3 The Golf Club 2019 featuring PGA TOUR Aug 28, 2018 $49.99N/A (N/A/72%)50,000 .. 100,0000%00:00 (00:00)HB Studios Multimedia Ltd.2K
4 The Golf Club Aug 19, 2014 $29.99N/A (N/A/70%)50,000 .. 100,0000%00:00 (00:00)HB StudiosHB Studios
5 Super Inefficient Golf Mar 15, 2018 $4.99N/A (N/A/69%)0 .. 20,0000%00:00 (00:00)34BigThings srl34BigThings srl
6 Vertiginous Golf Mar 7, 2014 $9.99N/A (N/A/63%)200,000 .. 500,0000%00:00 (00:00)Kinelco & Lone Elk CreativeFellow Traveller
7 Shot Online Jan 22, 2019 N/AN/A (N/A/59%)20,000 .. 50,0000%00:00 (00:00)WEBZEN ONNETWEBZEN
8 Dangerous Golf Jun 2, 2016 $19.99N/A (N/A/54%)100,000 .. 200,0000%00:00 (00:00)Three Fields EntertainmentThree Fields Entertainment
9 Golf With Your Friends May 19, 2020 $7.49N/A (N/A)2,000,000 .. 5,000,0002.96%01:30 (01:36)Blacklight InteractiveTeam17
10 Wonder Wickets Oct 17, 2018 $9.99N/A (N/A)0 .. 20,0000%00:00 (00:00)Rightstick StudiosRightstick Studios
11 Dream Golf VR Nov 3, 2017 FreeN/A (N/A)100,000 .. 200,0000%00:00 (00:00)Isaac StearnsIsaac Stearns
12 Infinite Mini Golf Jul 25, 2017 $14.99N/A (N/A)20,000 .. 50,0000%00:00 (00:00)Zen StudiosZen Studios
13 The Golf Club 2 Jun 27, 2017 N/AN/A (N/A)50,000 .. 100,0000%00:00 (00:00)HB StudiosMaximum Games
14 WGT Golf Apr 13, 2020 FreeN/A (N/A)200,000 .. 500,0000%00:00 (00:00)Topgolf MediaTopgolf Media
15 Golf It! Feb 17, 2017 $8.99N/A (N/A)1,000,000 .. 2,000,0001.35%02:40 (00:53)Perfuse EntertainmentPerfuse Entertainment
16 EnviroGolf Jan 15, 2014 FreeN/A (N/A)0 .. 20,0000%00:00 (00:00)Seemingly PointlessSeemingly Pointless
17 MiniGolf Mania Mar 25, 2016 FreeN/A (N/A)20,000 .. 50,0000%00:00 (00:00)Road Turtle GamesAxis Games
18 Winning Putt: Golf Online Oct 25, 2016 N/AN/A (N/A)100,000 .. 200,0000%00:00 (00:00)WEBZENONNET Co., Ltd.BANDAI NAMCO Entertainment America
19 GOLF in PAPER Dec 13, 2019 $1.99N/A (N/A)0 .. 20,0000%00:00 (00:00)meokigamemeokigame
20 Trivia Vault: Golf Trivia Mar 29, 2018 $9.99N/A (N/A)0 .. 20,0000%00:00 (00:00)Ripknot SystemsRipknot Systems
21 MiniGolf Mar 29, 2019 $2.99N/A (N/A)0 .. 20,0000%00:00 (00:00)Meridian93 StudioHH-Games
22 Puttin' Around Mar 6, 2019 $4.99N/A (N/A)0 .. 20,0000%00:00 (00:00)Better Games LLCBetter Games LLC
23 Resort Boss: Golf Jul 25, 2019 $12.99N/A (N/A)20,000 .. 50,0000%00:00 (00:00)Gus MartinExcalibur Games
24 Golf98 Oct 17, 2019 $0.59N/A (N/A)0 .. 20,0000%00:00 (00:00)Studio InwardStudio Inward
25 Mini Golf Buddies Dec 18, 2018 $4.99N/A (N/A)0 .. 20,0000%00:00 (00:00)Obumo GamesObumo Games
26 Golf Peaks Nov 13, 2018 $4.99N/A (N/A)50,000 .. 100,0000%00:00 (00:00)AfterburnAfterburn
27 Nice Shot! The Gun Golfing Game Nov 9, 2018 $6.99N/A (N/A)0 .. 20,0000%00:00 (00:00)PolyGryph StudiosPolyGryph Studios
28 Cheap Golf Nov 5, 2018 $4.99N/A (N/A)0 .. 20,0000%00:00 (00:00)PixeljamPixeljam
29 Bolf Nov 19, 2019 $7.99N/A (N/A)0 .. 20,0000%00:00 (00:00)SimTeneroSimTenero
30 Ballistic Mini Golf Oct 24, 2017 $4.99N/A (N/A)0 .. 20,0000%00:00 (00:00)Microlith GamesMicrolith Games
31 Virtual Islands Sep 9, 2016 $3.99N/A (N/A)0 .. 20,0000%00:00 (00:00)Tim McCullochTim McCulloch
32 Party Golf Oct 25, 2016 $14.99N/A (N/A)0 .. 20,0000%00:00 (00:00)Giant MargaritaGiant Margarita
33 The Golf Club VR Feb 24, 2017 $9.99N/A (N/A)20,000 .. 50,0000%00:00 (00:00)HB StudiosHB Studios
34 100ft Robot Golf Mar 16, 2017 $9.99N/A (N/A)0 .. 20,0000%00:00 (00:00)No GoblinNo Goblin
35 Golf for Workgroups Apr 6, 2017 $4.99N/A (N/A)0 .. 20,0000%00:00 (00:00)Cryptic SeaDevolver Digital
36 Everyday Golf VR Jul 12, 2017 $29.99N/A (N/A)0 .. 20,0000%00:00 (00:00)WISECATWISECAT
37 DOG GONE GOLFING Aug 25, 2017 $4.99N/A (N/A)0 .. 20,0000%00:00 (00:00)Vagabond DogVagabond Dog
38 Golf 2D Oct 17, 2017 $0.49N/A (N/A)20,000 .. 50,0000%00:00 (00:00)RewindAppRewindApp
39 Tee Time Golf Aug 31, 2018 $9.99N/A (N/A)0 .. 20,0000%00:00 (00:00)Barkers Crest Studio LLCBarkers Crest Studio LLC
40 Desert Golfing Dec 18, 2017 $1.99N/A (N/A)0 .. 20,0000%00:00 (00:00)Captain GamesCaptain Games
41 Golfing Over It with Alva Majo Mar 28, 2018 $4.99N/A (N/A)50,000 .. 100,0000%00:00 (00:00)MajorariattoMajorariatto
42 Just Like Golf May 15, 2020 $1.99N/A (N/A)0 .. 20,0000%00:00 (00:00)SÚRSPILSÚRSPIL
43 Mini Golf Arena Apr 21, 2018 $8.99N/A (N/A)0 .. 20,0000%00:00 (00:00)Evoluta StudioEvoluta Studio
44 RPGolf May 9, 2018 $3.99N/A (N/A)0 .. 20,0000%00:00 (00:00)ArticNetChorus Worldwide Games
45 Golf Galore Jul 12, 2018 $0.99N/A (N/A)50,000 .. 100,0000%00:00 (00:00)Golf Around Studio (Legacy)Golf Around Studio (Legacy)
46 Arcane Golf Jul 26, 2018 $2.99N/A (N/A)0 .. 20,0000%00:00 (00:00)FromLefcourt, thatgregperkinsFromLefcourt, thatgregperkins
47 Walkabout Mini Golf VR Jul 15, 2021 $14.99N/A (N/A)20,000 .. 50,0000%00:00 (00:00)Mighty CoconutMighty Coconut
48 Speedy Golf May 5, 2021 $14.99N/A (N/A)0 .. 20,0000%00:00 (00:00)Off The Deck GamesOff The Deck Games
49 Golf With Your Grandmother May 6, 2021 $4.99N/A (N/A)0 .. 20,0000%00:00 (00:00)NevsramNevsram
50 Disc Golf Valley VR May 19, 2021 $19.99N/A (N/A)0 .. 20,0000%00:00 (00:00)Latitude 64Latitude 64
51 Santa Soccer May 21, 2021 $0.99N/A (N/A)0 .. 20,0000%00:00 (00:00)Halara StudiosHalara Studios
52 OGgolf May 29, 2021 $12.99N/A (N/A)0 .. 20,0000%00:00 (00:00)TecmibaTecmiba
53 Brian the Brain Jun 3, 2021 $0.79N/A (N/A)0 .. 20,0000%00:00 (00:00)Richard BorgesRichard Borges
54 Overlay Balls & Mouse Tails Jun 4, 2021 $1.99N/A (N/A)0 .. 20,0000%00:00 (00:00)SAG, SAGSAG
55 Disc Golf Valley Jun 9, 2021 $4.99N/A (N/A)0 .. 20,0000%00:00 (00:00)Latitude 64Latitude 64
56 Unreal Golf Jun 24, 2021 $0.99N/A (N/A)0 .. 20,0000%00:00 (00:00)Rex JuniorRex Junior
57 Graviter Apr 8, 2021 $7.99N/A (N/A)0 .. 20,0000%00:00 (00:00)Emil MarkiewiczNo Gravity Games
58 CheeseCube Jul 16, 2021 $4.99N/A (N/A)0 .. 20,0000%00:00 (00:00)CheesyGamesCheesyGames
59 Eggy Jul 20, 2021 $10.99N/A (N/A)0 .. 20,0000%00:00 (00:00)Glenn VerheijKjoeb
60 EPEJSODION Lodge Jul 30, 2021 $4.99N/A (N/A)0 .. 20,0000%00:00 (00:00)Tadeusz LorkowskiTadeusz Lorkowski
61 3D Ultra Minigolf Adventures Dec 20, 2006 $9.99N/A (N/A)0 .. 20,0000%00:00 (00:00)Wanako GamesActivision
62 Worms Crazy Golf Oct 19, 2011 $9.99N/A (N/A)200,000 .. 500,0000%00:00 (00:00)Team17 Digital LtdTeam17 Digital Ltd
63 3D MiniGolf May 29, 2015 $4.99N/A (N/A)0 .. 20,0000%00:00 (00:00)Z-Software GmbHfamilyplay
64 Perfect Golf May 3, 2016 $34.99N/A (N/A)50,000 .. 100,0000%00:00 (00:00)PERFECT PARALLELPerfect.Golf, Inc.
65 Mini Golf Mundo May 10, 2016 $2.99N/A (N/A)50,000 .. 100,0000%00:00 (00:00)EnsenaSoftEnsenaSoft
66 Fort Golf Sep 1, 2020 $2.99N/A (N/A)0 .. 20,0000%00:00 (00:00)Chromatic Junkyard StudiosChromatic Junkyard Studios
67 Cloudlands 2 Jan 17, 2020 $19.99N/A (N/A)0 .. 20,0000%00:00 (00:00)FuturetownFuturetown
68 Perfect Round Disc Golf Mar 12, 2020 $19.99N/A (N/A)0 .. 20,0000%00:00 (00:00)Tree Branch GamesTree Branch Games
69 disc party Apr 30, 2020 $2.99N/A (N/A)0 .. 20,0000%00:00 (00:00)Sokpop CollectiveSokpop Collective
70 Mini Golf Club May 29, 2020 $14.99N/A (N/A)0 .. 20,0000%00:00 (00:00)Obumo GamesObumo Games
71 Shuffs Jun 29, 2020 $2.99N/A (N/A)0 .. 20,0000%00:00 (00:00)Kyle HoskingNo Relation Games
72 Golf On Mars Jul 3, 2020 $2.99N/A (N/A)0 .. 20,0000%00:00 (00:00)Captain GamesCaptain Games
73 Golf Masters Jul 13, 2020 $9.99N/A (N/A)0 .. 20,0000%00:00 (00:00)Ghost MachineGhost Machine
74 Mighty Fling Jul 20, 2020 $9.99N/A (N/A)0 .. 20,0000%00:00 (00:00)Hollow Art StudiosHollow Art Studios
75 Encore Card Games Collection Dec 20, 2019 $19.99N/A (N/A)0 .. 20,0000%00:00 (00:00)WebfootEncore Software
76 Off The Chains Disc Golf Nov 12, 2020 $19.99N/A (N/A)0 .. 20,0000%00:00 (00:00)Dream NerdyDream Nerdy
77 Puzzling Peaks EXE Dec 1, 2020 $1.99N/A (N/A)0 .. 20,0000%00:00 (00:00)Darius Immanuel D. GuerreroAppSir, Inc.
78 Golf Around! Dec 4, 2020 $4.99N/A (N/A)0 .. 20,0000%00:00 (00:00)Golf Around StudioGolf Around Studio
79 Macro golf Dec 14, 2020 $18.99N/A (N/A)0 .. 20,0000%00:00 (00:00)VitokVitok
80 Golf Party Jan 29, 2021 $9.99N/A (N/A)0 .. 20,0000%00:00 (00:00)VoidFiller StudiosVoidFiller Studios
81 All-In-One Sports VR Feb 25, 2021 $19.99N/A (N/A)0 .. 20,0000%00:00 (00:00)Appnori Inc.Appnori Inc.
82 Mage Drops Mar 19, 2021 $12.99N/A (N/A)0 .. 20,0000%00:00 (00:00)Orchid of RedemptionLamplight Forest
83 GolfTopia Mar 30, 2021 $15.99N/A (N/A)20,000 .. 50,0000%00:00 (00:00)MinMax Games Ltd.MinMax Games Ltd.
Overview

Golf

Games with this tag: 83
Average userscore: N/A%
Average metascore: 67.63%
Average playtime: 06:58
Total copies owned: 6,727,000
Average price: $10.42
Help

Owners: Estimated number of people owning this game. The number might be way too small for new releases and sometimes way too big for games that had free weekend event recently. Read more on About page.

Playtime: Average hours played in total per person that have actually launched this game since March 2009. This time is calculated for the whole lifetime, not for the particular year.

Average score: Average users and metacritic score for all games with this score assigned.

Average playtime: Average lifetime playtime for all games where this data is available.

Games in this genre: Self-explaining - number of games with this tag. Only inculdes games with sales data available.

Total copies owned: Refers to total copies of games with this tag acquired by users for the lifetime. Includes copies sold, downloaded for free and given out.

This number might be too small for recently released games or too big for games that had a free weekend in the last couple of months.

Graphs

Login required.

Please register or log in to see this information.

Login required.

Please register or log in to see this information.